sensor_id;sensor_type;location;lat;lon;timestamp;temperature;humidity
56256;DHT22;57229;51.432;-2.598;2022-11-15T00:01:52;15.70;99.90
56256;DHT22;57229;51.432;-2.598;2022-11-15T00:04:39;15.70;99.90
56256;DHT22;57229;51.432;-2.598;2022-11-15T00:07:11;15.70;99.90
56256;DHT22;57229;51.432;-2.598;2022-11-15T00:09:37;15.70;99.90
56256;DHT22;57229;51.432;-2.598;2022-11-15T00:12:04;15.70;99.90
56256;DHT22;57229;51.432;-2.598;2022-11-15T00:14:34;15.70;99.90
56256;DHT22;57229;51.432;-2.598;2022-11-15T00:17:03;15.70;99.90
56256;DHT22;57229;51.432;-2.598;2022-11-15T00:19:30;15.70;99.90
56256;DHT22;57229;51.432;-2.598;2022-11-15T00:22:04;15.70;99.90
56256;DHT22;57229;51.432;-2.598;2022-11-15T00:24:47;15.80;99.90
56256;DHT22;57229;51.432;-2.598;2022-11-15T00:27:19;15.80;99.90
56256;DHT22;57229;51.432;-2.598;2022-11-15T00:29:45;15.80;99.90
56256;DHT22;57229;51.432;-2.598;2022-11-15T00:32:15;15.80;99.90
56256;DHT22;57229;51.432;-2.598;2022-11-15T00:37:55;15.80;99.90
56256;DHT22;57229;51.432;-2.598;2022-11-15T00:40:20;15.70;99.90
56256;DHT22;57229;51.432;-2.598;2022-11-15T00:42:46;15.70;99.90
56256;DHT22;57229;51.432;-2.598;2022-11-15T00:45:14;15.70;99.90
56256;DHT22;57229;51.432;-2.598;2022-11-15T00:47:57;15.70;99.90
56256;DHT22;57229;51.432;-2.598;2022-11-15T00:50:27;15.70;99.90
56256;DHT22;57229;51.432;-2.598;2022-11-15T00:52:53;15.70;99.90
56256;DHT22;57229;51.432;-2.598;2022-11-15T00:55:19;15.70;99.90
56256;DHT22;57229;51.432;-2.598;2022-11-15T00:58:08;15.70;99.90
56256;DHT22;57229;51.432;-2.598;2022-11-15T01:00:44;15.70;99.90
56256;DHT22;57229;51.432;-2.598;2022-11-15T01:03:16;15.70;99.90
56256;DHT22;57229;51.432;-2.598;2022-11-15T01:05:48;15.70;99.90
56256;DHT22;57229;51.432;-2.598;2022-11-15T01:08:15;15.70;99.90
56256;DHT22;57229;51.432;-2.598;2022-11-15T01:10:50;15.70;99.90
56256;DHT22;57229;51.432;-2.598;2022-11-15T01:13:16;15.70;99.90
56256;DHT22;57229;51.432;-2.598;2022-11-15T01:15:43;15.70;99.90
56256;DHT22;57229;51.432;-2.598;2022-11-15T01:18:22;15.70;99.90
56256;DHT22;57229;51.432;-2.598;2022-11-15T01:21:18;15.70;99.90
56256;DHT22;57229;51.432;-2.598;2022-11-15T01:24:00;15.70;99.90
56256;DHT22;57229;51.432;-2.598;2022-11-15T01:26:26;15.70;99.90
56256;DHT22;57229;51.432;-2.598;2022-11-15T01:28:54;15.70;99.90
56256;DHT22;57229;51.432;-2.598;2022-11-15T01:31:21;15.70;99.90
56256;DHT22;57229;51.432;-2.598;2022-11-15T01:33:47;15.70;99.90
56256;DHT22;57229;51.432;-2.598;2022-11-15T01:36:40;15.70;99.90
56256;DHT22;57229;51.432;-2.598;2022-11-15T01:39:08;15.70;99.90
56256;DHT22;57229;51.432;-2.598;2022-11-15T01:41:41;15.70;99.90
56256;DHT22;57229;51.432;-2.598;2022-11-15T01:44:55;15.80;99.90
56256;DHT22;57229;51.432;-2.598;2022-11-15T01:47:28;15.80;99.90
56256;DHT22;57229;51.432;-2.598;2022-11-15T01:50:08;15.90;99.90
56256;DHT22;57229;51.432;-2.598;2022-11-15T01:52:42;15.90;99.90
56256;DHT22;57229;51.432;-2.598;2022-11-15T01:55:13;15.90;99.90
56256;DHT22;57229;51.432;-2.598;2022-11-15T02:00:33;15.90;99.90
56256;DHT22;57229;51.432;-2.598;2022-11-15T02:03:08;15.90;99.90
56256;DHT22;57229;51.432;-2.598;2022-11-15T02:05:47;16.00;99.90
56256;DHT22;57229;51.432;-2.598;2022-11-15T02:08:24;16.00;99.90
56256;DHT22;57229;51.432;-2.598;2022-11-15T02:11:00;16.00;99.90
56256;DHT22;57229;51.432;-2.598;2022-11-15T02:13:56;16.00;99.90
56256;DHT22;57229;51.432;-2.598;2022-11-15T02:21:05;16.00;99.90
56256;DHT22;57229;51.432;-2.598;2022-11-15T02:26:58;16.00;99.90
56256;DHT22;57229;51.432;-2.598;2022-11-15T02:32:38;16.00;99.90
56256;DHT22;57229;51.432;-2.598;2022-11-15T02:41:47;16.00;99.90
56256;DHT22;57229;51.432;-2.598;2022-11-15T02:44:21;16.00;99.90
56256;DHT22;57229;51.432;-2.598;2022-11-15T02:46:59;16.00;99.90
56256;DHT22;57229;51.432;-2.598;2022-11-15T02:49:54;16.00;99.90
56256;DHT22;57229;51.432;-2.598;2022-11-15T02:53:14;16.00;99.90
56256;DHT22;57229;51.432;-2.598;2022-11-15T02:55:49;16.00;99.90
56256;DHT22;57229;51.432;-2.598;2022-11-15T03:04:19;16.00;99.90
56256;DHT22;57229;51.432;-2.598;2022-11-15T03:06:59;16.00;99.90
56256;DHT22;57229;51.432;-2.598;2022-11-15T03:09:50;16.00;99.90
56256;DHT22;57229;51.432;-2.598;2022-11-15T03:12:26;16.00;99.90
56256;DHT22;57229;51.432;-2.598;2022-11-15T03:15:03;16.00;99.90
56256;DHT22;57229;51.432;-2.598;2022-11-15T03:17:53;15.90;99.90
56256;DHT22;57229;51.432;-2.598;2022-11-15T03:20:27;16.00;99.90
56256;DHT22;57229;51.432;-2.598;2022-11-15T03:22:56;16.00;99.90
56256;DHT22;57229;51.432;-2.598;2022-11-15T03:25:25;15.90;99.90
56256;DHT22;57229;51.432;-2.598;2022-11-15T03:27:55;15.90;99.90
56256;DHT22;57229;51.432;-2.598;2022-11-15T03:30:22;15.90;99.90
56256;DHT22;57229;51.432;-2.598;2022-11-15T03:32:54;15.90;99.90
56256;DHT22;57229;51.432;-2.598;2022-11-15T03:35:27;15.90;99.90
56256;DHT22;57229;51.432;-2.598;2022-11-15T03:41:05;15.90;99.90
56256;DHT22;57229;51.432;-2.598;2022-11-15T03:46:34;15.90;99.90
56256;DHT22;57229;51.432;-2.598;2022-11-15T03:49:09;15.90;99.90
56256;DHT22;57229;51.432;-2.598;2022-11-15T03:51:36;15.90;99.90
56256;DHT22;57229;51.432;-2.598;2022-11-15T03:54:05;15.90;99.90
56256;DHT22;57229;51.432;-2.598;2022-11-15T03:56:30;15.90;99.90
56256;DHT22;57229;51.432;-2.598;2022-11-15T03:58:56;15.90;99.90
56256;DHT22;57229;51.432;-2.598;2022-11-15T04:01:22;15.90;99.90
56256;DHT22;57229;51.432;-2.598;2022-11-15T04:03:47;15.90;99.90
56256;DHT22;57229;51.432;-2.598;2022-11-15T04:06:13;15.90;99.90
56256;DHT22;57229;51.432;-2.598;2022-11-15T04:08:39;15.90;99.90
56256;DHT22;57229;51.432;-2.598;2022-11-15T04:11:05;15.90;99.90
56256;DHT22;57229;51.432;-2.598;2022-11-15T04:13:30;15.90;99.90
56256;DHT22;57229;51.432;-2.598;2022-11-15T04:15:56;15.90;99.90
56256;DHT22;57229;51.432;-2.598;2022-11-15T04:18:22;15.90;99.90
56256;DHT22;57229;51.432;-2.598;2022-11-15T04:20:48;15.90;99.90
56256;DHT22;57229;51.432;-2.598;2022-11-15T04:23:32;15.90;99.90
56256;DHT22;57229;51.432;-2.598;2022-11-15T04:26:18;15.90;99.90
56256;DHT22;57229;51.432;-2.598;2022-11-15T04:28:45;15.90;99.90
56256;DHT22;57229;51.432;-2.598;2022-11-15T04:31:29;15.90;99.90
56256;DHT22;57229;51.432;-2.598;2022-11-15T04:33:55;15.80;99.90
56256;DHT22;57229;51.432;-2.598;2022-11-15T04:36:21;15.90;99.90
56256;DHT22;57229;51.432;-2.598;2022-11-15T04:39:06;15.90;99.90
56256;DHT22;57229;51.432;-2.598;2022-11-15T04:41:32;15.90;99.90
56256;DHT22;57229;51.432;-2.598;2022-11-15T04:44:02;15.90;99.90
56256;DHT22;57229;51.432;-2.598;2022-11-15T04:46:28;15.90;99.90
56256;DHT22;57229;51.432;-2.598;2022-11-15T04:48:54;15.90;99.90
56256;DHT22;57229;51.432;-2.598;2022-11-15T04:51:20;15.90;99.90
56256;DHT22;57229;51.432;-2.598;2022-11-15T04:54:42;15.90;99.90
56256;DHT22;57229;51.432;-2.598;2022-11-15T04:57:18;15.90;99.90
56256;DHT22;57229;51.432;-2.598;2022-11-15T04:59:43;15.90;99.90
56256;DHT22;57229;51.432;-2.598;2022-11-15T05:02:09;15.90;99.90
56256;DHT22;57229;51.432;-2.598;2022-11-15T05:04:35;15.90;99.90
56256;DHT22;57229;51.432;-2.598;2022-11-15T05:07:01;15.90;99.90
56256;DHT22;57229;51.432;-2.598;2022-11-15T05:09:27;15.90;99.90
56256;DHT22;57229;51.432;-2.598;2022-11-15T05:11:53;15.90;99.90
56256;DHT22;57229;51.432;-2.598;2022-11-15T05:14:18;15.90;99.90
56256;DHT22;57229;51.432;-2.598;2022-11-15T05:16:44;15.90;99.90
56256;DHT22;57229;51.432;-2.598;2022-11-15T05:19:10;15.90;99.90
56256;DHT22;57229;51.432;-2.598;2022-11-15T05:21:37;15.80;99.90
56256;DHT22;57229;51.432;-2.598;2022-11-15T05:24:03;15.90;99.90
56256;DHT22;57229;51.432;-2.598;2022-11-15T05:26:39;15.90;99.90
56256;DHT22;57229;51.432;-2.598;2022-11-15T05:29:05;15.90;99.90
56256;DHT22;57229;51.432;-2.598;2022-11-15T05:31:31;15.90;99.90
56256;DHT22;57229;51.432;-2.598;2022-11-15T05:34:05;15.90;99.90
56256;DHT22;57229;51.432;-2.598;2022-11-15T05:36:42;15.90;99.90
56256;DHT22;57229;51.432;-2.598;2022-11-15T05:39:08;15.90;99.90
56256;DHT22;57229;51.432;-2.598;2022-11-15T05:41:39;15.80;99.90
56256;DHT22;57229;51.432;-2.598;2022-11-15T05:44:07;15.80;99.90
56256;DHT22;57229;51.432;-2.598;2022-11-15T05:46:35;15.80;99.90
56256;DHT22;57229;51.432;-2.598;2022-11-15T05:49:04;15.90;99.90
56256;DHT22;57229;51.432;-2.598;2022-11-15T05:51:31;15.80;99.90
56256;DHT22;57229;51.432;-2.598;2022-11-15T05:53:58;15.90;99.90
56256;DHT22;57229;51.432;-2.598;2022-11-15T05:56:25;15.90;99.90
56256;DHT22;57229;51.432;-2.598;2022-11-15T05:58:53;15.90;99.90
56256;DHT22;57229;51.432;-2.598;2022-11-15T06:01:20;15.90;99.90
56256;DHT22;57229;51.432;-2.598;2022-11-15T06:03:46;15.90;99.90
56256;DHT22;57229;51.432;-2.598;2022-11-15T06:06:12;15.80;99.90
56256;DHT22;57229;51.432;-2.598;2022-11-15T06:08:38;15.80;99.90
56256;DHT22;57229;51.432;-2.598;2022-11-15T06:11:08;15.80;99.90
56256;DHT22;57229;51.432;-2.598;2022-11-15T06:13:34;15.90;99.90
56256;DHT22;57229;51.432;-2.598;2022-11-15T06:16:00;15.80;99.90
56256;DHT22;57229;51.432;-2.598;2022-11-15T06:18:26;15.90;99.90
56256;DHT22;57229;51.432;-2.598;2022-11-15T06:20:52;15.80;99.90
56256;DHT22;57229;51.432;-2.598;2022-11-15T06:23:24;15.80;99.90
56256;DHT22;57229;51.432;-2.598;2022-11-15T06:25:50;15.80;99.90
56256;DHT22;57229;51.432;-2.598;2022-11-15T06:28:16;15.80;99.90
56256;DHT22;57229;51.432;-2.598;2022-11-15T06:30:42;15.80;99.90
56256;DHT22;57229;51.432;-2.598;2022-11-15T06:33:07;15.80;99.90
56256;DHT22;57229;51.432;-2.598;2022-11-15T06:35:35;15.80;99.90
56256;DHT22;57229;51.432;-2.598;2022-11-15T06:40:44;15.90;99.90
56256;DHT22;57229;51.432;-2.598;2022-11-15T06:43:10;15.80;99.90
56256;DHT22;57229;51.432;-2.598;2022-11-15T06:45:39;15.90;99.90
56256;DHT22;57229;51.432;-2.598;2022-11-15T06:48:14;15.80;99.90
56256;DHT22;57229;51.432;-2.598;2022-11-15T06:50:41;15.80;99.90
56256;DHT22;57229;51.432;-2.598;2022-11-15T06:53:07;15.80;99.90
56256;DHT22;57229;51.432;-2.598;2022-11-15T06:55:32;15.90;99.90
56256;DHT22;57229;51.432;-2.598;2022-11-15T06:58:08;15.80;99.90
56256;DHT22;57229;51.432;-2.598;2022-11-15T07:00:34;15.90;99.90
56256;DHT22;57229;51.432;-2.598;2022-11-15T07:03:00;15.80;99.90
56256;DHT22;57229;51.432;-2.598;2022-11-15T07:05:30;15.80;99.90
56256;DHT22;57229;51.432;-2.598;2022-11-15T07:07:57;15.80;99.90
56256;DHT22;57229;51.432;-2.598;2022-11-15T07:10:24;15.80;99.90
56256;DHT22;57229;51.432;-2.598;2022-11-15T07:12:54;15.80;99.90
56256;DHT22;57229;51.432;-2.598;2022-11-15T07:15:24;15.90;99.90
56256;DHT22;57229;51.432;-2.598;2022-11-15T07:17:50;15.80;99.90
56256;DHT22;57229;51.432;-2.598;2022-11-15T07:20:17;15.80;99.90
56256;DHT22;57229;51.432;-2.598;2022-11-15T07:22:43;15.80;99.90
56256;DHT22;57229;51.432;-2.598;2022-11-15T07:25:12;15.80;99.90
56256;DHT22;57229;51.432;-2.598;2022-11-15T07:27:38;15.80;99.90
56256;DHT22;57229;51.432;-2.598;2022-11-15T07:30:05;15.80;99.90
56256;DHT22;57229;51.432;-2.598;2022-11-15T07:32:30;15.90;99.90
56256;DHT22;57229;51.432;-2.598;2022-11-15T07:34:56;15.80;99.90
56256;DHT22;57229;51.432;-2.598;2022-11-15T07:37:22;15.80;99.90
56256;DHT22;57229;51.432;-2.598;2022-11-15T07:39:48;15.80;99.90
56256;DHT22;57229;51.432;-2.598;2022-11-15T07:42:13;15.80;99.90
56256;DHT22;57229;51.432;-2.598;2022-11-15T07:44:58;16.00;99.90
56256;DHT22;57229;51.432;-2.598;2022-11-15T07:47:23;15.80;99.90
56256;DHT22;57229;51.432;-2.598;2022-11-15T07:49:49;15.80;99.90
56256;DHT22;57229;51.432;-2.598;2022-11-15T07:52:15;15.80;99.90
56256;DHT22;57229;51.432;-2.598;2022-11-15T07:54:40;15.80;99.90
56256;DHT22;57229;51.432;-2.598;2022-11-15T07:57:06;15.80;99.90
56256;DHT22;57229;51.432;-2.598;2022-11-15T07:59:34;15.80;99.90
56256;DHT22;57229;51.432;-2.598;2022-11-15T08:02:00;15.80;99.90
56256;DHT22;57229;51.432;-2.598;2022-11-15T08:04:26;15.80;99.90
56256;DHT22;57229;51.432;-2.598;2022-11-15T08:06:51;15.90;99.90
56256;DHT22;57229;51.432;-2.598;2022-11-15T08:09:17;15.90;99.90
56256;DHT22;57229;51.432;-2.598;2022-11-15T08:11:43;15.80;99.90
56256;DHT22;57229;51.432;-2.598;2022-11-15T08:14:08;15.80;99.90
56256;DHT22;57229;51.432;-2.598;2022-11-15T08:16:34;15.80;99.90
56256;DHT22;57229;51.432;-2.598;2022-11-15T08:19:00;15.90;99.90
56256;DHT22;57229;51.432;-2.598;2022-11-15T08:21:25;15.80;99.90
56256;DHT22;57229;51.432;-2.598;2022-11-15T08:23:51;15.90;99.90
56256;DHT22;57229;51.432;-2.598;2022-11-15T08:26:17;15.90;99.90
56256;DHT22;57229;51.432;-2.598;2022-11-15T08:28:42;15.90;99.90
56256;DHT22;57229;51.432;-2.598;2022-11-15T08:31:14;15.90;99.90
56256;DHT22;57229;51.432;-2.598;2022-11-15T08:33:42;15.90;99.90
56256;DHT22;57229;51.432;-2.598;2022-11-15T08:36:13;15.90;99.90
56256;DHT22;57229;51.432;-2.598;2022-11-15T08:38:39;15.90;99.90
56256;DHT22;57229;51.432;-2.598;2022-11-15T08:41:05;15.90;99.90
56256;DHT22;57229;51.432;-2.598;2022-11-15T08:43:31;15.90;99.90
56256;DHT22;57229;51.432;-2.598;2022-11-15T08:45:58;15.90;99.90
56256;DHT22;57229;51.432;-2.598;2022-11-15T08:48:24;15.90;99.90
56256;DHT22;57229;51.432;-2.598;2022-11-15T08:50:54;15.90;99.90
56256;DHT22;57229;51.432;-2.598;2022-11-15T08:53:20;15.90;99.90
56256;DHT22;57229;51.432;-2.598;2022-11-15T08:55:46;15.90;99.90
56256;DHT22;57229;51.432;-2.598;2022-11-15T08:58:12;15.90;99.90
56256;DHT22;57229;51.432;-2.598;2022-11-15T09:00:37;15.90;99.90
56256;DHT22;57229;51.432;-2.598;2022-11-15T09:03:04;15.90;99.90
56256;DHT22;57229;51.432;-2.598;2022-11-15T09:05:31;15.90;99.90
56256;DHT22;57229;51.432;-2.598;2022-11-15T09:07:57;15.90;99.90
56256;DHT22;57229;51.432;-2.598;2022-11-15T09:10:22;15.90;99.90
56256;DHT22;57229;51.432;-2.598;2022-11-15T09:12:48;15.90;99.90
56256;DHT22;57229;51.432;-2.598;2022-11-15T09:15:15;15.90;99.90
56256;DHT22;57229;51.432;-2.598;2022-11-15T09:17:41;15.90;99.90
56256;DHT22;57229;51.432;-2.598;2022-11-15T09:20:08;15.90;99.90
56256;DHT22;57229;51.432;-2.598;2022-11-15T09:22:34;15.90;99.90
56256;DHT22;57229;51.432;-2.598;2022-11-15T09:25:02;15.90;99.90
56256;DHT22;57229;51.432;-2.598;2022-11-15T09:27:28;15.90;99.90
56256;DHT22;57229;51.432;-2.598;2022-11-15T09:29:54;15.90;99.90
56256;DHT22;57229;51.432;-2.598;2022-11-15T09:32:20;15.90;99.90
56256;DHT22;57229;51.432;-2.598;2022-11-15T09:34:47;15.80;99.90
56256;DHT22;57229;51.432;-2.598;2022-11-15T09:37:13;15.80;99.90
56256;DHT22;57229;51.432;-2.598;2022-11-15T09:39:38;15.80;99.90
56256;DHT22;57229;51.432;-2.598;2022-11-15T09:48:02;15.80;99.90
56256;DHT22;57229;51.432;-2.598;2022-11-15T09:50:49;15.80;99.90
56256;DHT22;57229;51.432;-2.598;2022-11-15T09:53:25;15.80;99.90
56256;DHT22;57229;51.432;-2.598;2022-11-15T09:56:02;15.80;99.90
56256;DHT22;57229;51.432;-2.598;2022-11-15T10:04:31;15.70;99.90
56256;DHT22;57229;51.432;-2.598;2022-11-15T10:07:05;15.70;99.90
56256;DHT22;57229;51.432;-2.598;2022-11-15T10:12:15;15.70;99.90
56256;DHT22;57229;51.432;-2.598;2022-11-15T10:14:41;15.70;99.90
56256;DHT22;57229;51.432;-2.598;2022-11-15T10:20:00;15.70;99.90
56256;DHT22;57229;51.432;-2.598;2022-11-15T10:22:38;15.70;99.90
56256;DHT22;57229;51.432;-2.598;2022-11-15T10:27:58;15.70;99.90
56256;DHT22;57229;51.432;-2.598;2022-11-15T10:30:32;15.70;99.90
56256;DHT22;57229;51.432;-2.598;2022-11-15T10:33:01;15.70;99.90
56256;DHT22;57229;51.432;-2.598;2022-11-15T10:35:35;15.70;99.90
56256;DHT22;57229;51.432;-2.598;2022-11-15T10:38:09;15.70;99.90
56256;DHT22;57229;51.432;-2.598;2022-11-15T10:40:35;15.70;99.90
56256;DHT22;57229;51.432;-2.598;2022-11-15T10:45:37;15.80;99.90
56256;DHT22;57229;51.432;-2.598;2022-11-15T10:50:40;15.80;99.90
56256;DHT22;57229;51.432;-2.598;2022-11-15T10:55:49;15.80;99.90
56256;DHT22;57229;51.432;-2.598;2022-11-15T10:58:42;15.90;99.90
56256;DHT22;57229;51.432;-2.598;2022-11-15T11:01:13;15.90;99.90
56256;DHT22;57229;51.432;-2.598;2022-11-15T11:03:40;15.90;99.90
56256;DHT22;57229;51.432;-2.598;2022-11-15T11:06:15;16.00;99.90
56256;DHT22;57229;51.432;-2.598;2022-11-15T11:09:10;16.20;99.90
56256;DHT22;57229;51.432;-2.598;2022-11-15T11:11:51;16.30;99.90
56256;DHT22;57229;51.432;-2.598;2022-11-15T11:14:22;16.50;99.90
56256;DHT22;57229;51.432;-2.598;2022-11-15T11:17:05;16.70;99.90
56256;DHT22;57229;51.432;-2.598;2022-11-15T11:20:07;16.70;99.90
56256;DHT22;57229;51.432;-2.598;2022-11-15T11:22:42;16.70;99.90
56256;DHT22;57229;51.432;-2.598;2022-11-15T11:27:59;16.70;99.90
56256;DHT22;57229;51.432;-2.598;2022-11-15T11:33:40;16.70;99.90
56256;DHT22;57229;51.432;-2.598;2022-11-15T11:42:06;17.10;99.90
56256;DHT22;57229;51.432;-2.598;2022-11-15T11:49:46;17.20;99.90
56256;DHT22;57229;51.432;-2.598;2022-11-15T11:52:34;17.20;99.90
56256;DHT22;57229;51.432;-2.598;2022-11-15T11:55:23;17.20;99.90
56256;DHT22;57229;51.432;-2.598;2022-11-15T12:00:47;17.00;99.90
56256;DHT22;57229;51.432;-2.598;2022-11-15T12:06:20;16.90;99.90
56256;DHT22;57229;51.432;-2.598;2022-11-15T12:11:49;16.90;99.90
56256;DHT22;57229;51.432;-2.598;2022-11-15T12:14:49;16.80;99.90
56256;DHT22;57229;51.432;-2.598;2022-11-15T12:17:20;16.90;99.90
56256;DHT22;57229;51.432;-2.598;2022-11-15T12:19:47;17.00;99.90
56256;DHT22;57229;51.432;-2.598;2022-11-15T12:22:41;17.10;99.90
56256;DHT22;57229;51.432;-2.598;2022-11-15T12:28:01;17.70;99.90
56256;DHT22;57229;51.432;-2.598;2022-11-15T12:30:42;17.90;99.90
56256;DHT22;57229;51.432;-2.598;2022-11-15T12:36:04;18.30;99.90
56256;DHT22;57229;51.432;-2.598;2022-11-15T12:38:58;18.40;99.90
56256;DHT22;57229;51.432;-2.598;2022-11-15T12:41:28;18.50;99.90
56256;DHT22;57229;51.432;-2.598;2022-11-15T12:43:54;18.50;99.90
56256;DHT22;57229;51.432;-2.598;2022-11-15T12:49:43;18.50;99.90
56256;DHT22;57229;51.432;-2.598;2022-11-15T12:59:54;18.30;99.90
56256;DHT22;57229;51.432;-2.598;2022-11-15T13:20:14;18.20;99.90
56256;DHT22;57229;51.432;-2.598;2022-11-15T13:22:58;18.20;99.90
56256;DHT22;57229;51.432;-2.598;2022-11-15T13:30:54;18.20;99.90
56256;DHT22;57229;51.432;-2.598;2022-11-15T13:33:37;18.20;99.90
56256;DHT22;57229;51.432;-2.598;2022-11-15T13:36:23;18.10;99.90
56256;DHT22;57229;51.432;-2.598;2022-11-15T13:39:03;18.00;99.90
56256;DHT22;57229;51.432;-2.598;2022-11-15T13:41:35;17.90;99.90
56256;DHT22;57229;51.432;-2.598;2022-11-15T13:44:03;17.80;99.90
56256;DHT22;57229;51.432;-2.598;2022-11-15T13:46:31;17.80;99.90
56256;DHT22;57229;51.432;-2.598;2022-11-15T13:49:05;17.70;99.90
56256;DHT22;57229;51.432;-2.598;2022-11-15T13:56:32;17.60;99.90
56256;DHT22;57229;51.432;-2.598;2022-11-15T13:59:00;17.60;99.90
56256;DHT22;57229;51.432;-2.598;2022-11-15T14:01:28;17.90;99.90
56256;DHT22;57229;51.432;-2.598;2022-11-15T14:04:00;17.50;99.90
56256;DHT22;57229;51.432;-2.598;2022-11-15T14:06:28;17.50;99.90
56256;DHT22;57229;51.432;-2.598;2022-11-15T14:11:35;17.50;99.90
56256;DHT22;57229;51.432;-2.598;2022-11-15T14:16:38;17.50;99.90
56256;DHT22;57229;51.432;-2.598;2022-11-15T14:19:05;17.40;99.90
56256;DHT22;57229;51.432;-2.598;2022-11-15T14:21:32;17.50;99.90
56256;DHT22;57229;51.432;-2.598;2022-11-15T14:24:19;17.60;99.90
56256;DHT22;57229;51.432;-2.598;2022-11-15T14:26:45;17.60;99.90
56256;DHT22;57229;51.432;-2.598;2022-11-15T14:29:29;17.60;99.90
56256;DHT22;57229;51.432;-2.598;2022-11-15T14:32:24;17.70;99.90
56256;DHT22;57229;51.432;-2.598;2022-11-15T14:34:57;17.70;99.90
56256;DHT22;57229;51.432;-2.598;2022-11-15T14:37:25;17.70;99.90
56256;DHT22;57229;51.432;-2.598;2022-11-15T14:39:51;17.70;99.90
56256;DHT22;57229;51.432;-2.598;2022-11-15T14:42:18;17.60;99.90
56256;DHT22;57229;51.432;-2.598;2022-11-15T14:44:44;17.60;99.90
56256;DHT22;57229;51.432;-2.598;2022-11-15T14:47:10;17.60;99.90
56256;DHT22;57229;51.432;-2.598;2022-11-15T14:49:35;17.50;99.90
56256;DHT22;57229;51.432;-2.598;2022-11-15T14:52:01;17.50;99.90
56256;DHT22;57229;51.432;-2.598;2022-11-15T14:54:27;17.50;99.90
56256;DHT22;57229;51.432;-2.598;2022-11-15T14:56:53;17.40;99.90
56256;DHT22;57229;51.432;-2.598;2022-11-15T14:59:18;17.40;99.90
56256;DHT22;57229;51.432;-2.598;2022-11-15T15:01:44;17.30;99.90
56256;DHT22;57229;51.432;-2.598;2022-11-15T15:04:10;17.30;99.90
56256;DHT22;57229;51.432;-2.598;2022-11-15T15:06:36;17.30;99.90
56256;DHT22;57229;51.432;-2.598;2022-11-15T15:09:02;17.20;99.90
56256;DHT22;57229;51.432;-2.598;2022-11-15T15:11:30;17.20;99.90
56256;DHT22;57229;51.432;-2.598;2022-11-15T15:13:56;17.20;99.90
56256;DHT22;57229;51.432;-2.598;2022-11-15T15:16:25;17.20;99.90
56256;DHT22;57229;51.432;-2.598;2022-11-15T15:18:50;17.10;99.90
56256;DHT22;57229;51.432;-2.598;2022-11-15T15:21:20;17.10;99.90
56256;DHT22;57229;51.432;-2.598;2022-11-15T15:23:47;17.10;99.90
56256;DHT22;57229;51.432;-2.598;2022-11-15T15:26:12;17.00;99.90
56256;DHT22;57229;51.432;-2.598;2022-11-15T15:28:38;17.00;99.90
56256;DHT22;57229;51.432;-2.598;2022-11-15T15:31:04;16.90;99.90
56256;DHT22;57229;51.432;-2.598;2022-11-15T15:33:31;16.90;99.90
56256;DHT22;57229;51.432;-2.598;2022-11-15T15:35:57;16.90;99.90
56256;DHT22;57229;51.432;-2.598;2022-11-15T15:38:22;16.90;99.90
56256;DHT22;57229;51.432;-2.598;2022-11-15T15:40:48;16.90;99.90
56256;DHT22;57229;51.432;-2.598;2022-11-15T15:43:14;16.90;99.90
56256;DHT22;57229;51.432;-2.598;2022-11-15T15:45:41;16.80;99.90
56256;DHT22;57229;51.432;-2.598;2022-11-15T15:48:14;16.80;99.90
56256;DHT22;57229;51.432;-2.598;2022-11-15T15:50:41;16.80;99.90
56256;DHT22;57229;51.432;-2.598;2022-11-15T15:53:09;16.70;99.90
56256;DHT22;57229;51.432;-2.598;2022-11-15T15:55:36;16.70;99.90
56256;DHT22;57229;51.432;-2.598;2022-11-15T15:58:02;16.70;99.90
56256;DHT22;57229;51.432;-2.598;2022-11-15T16:00:28;16.70;99.90
56256;DHT22;57229;51.432;-2.598;2022-11-15T16:02:54;16.60;99.90
56256;DHT22;57229;51.432;-2.598;2022-11-15T16:05:21;16.60;99.90
56256;DHT22;57229;51.432;-2.598;2022-11-15T16:07:47;16.60;99.90
56256;DHT22;57229;51.432;-2.598;2022-11-15T16:10:28;16.60;99.90
56256;DHT22;57229;51.432;-2.598;2022-11-15T16:12:57;16.60;99.90
56256;DHT22;57229;51.432;-2.598;2022-11-15T16:15:24;16.60;99.90
56256;DHT22;57229;51.432;-2.598;2022-11-15T16:17:52;16.70;99.90
56256;DHT22;57229;51.432;-2.598;2022-11-15T16:23:00;16.80;99.90
56256;DHT22;57229;51.432;-2.598;2022-11-15T16:25:27;16.80;99.90
56256;DHT22;57229;51.432;-2.598;2022-11-15T16:27:52;16.80;99.90
56256;DHT22;57229;51.432;-2.598;2022-11-15T16:30:20;16.90;99.90
56256;DHT22;57229;51.432;-2.598;2022-11-15T16:32:46;16.90;99.90
56256;DHT22;57229;51.432;-2.598;2022-11-15T16:35:13;16.90;99.90
56256;DHT22;57229;51.432;-2.598;2022-11-15T16:37:39;16.90;99.90
56256;DHT22;57229;51.432;-2.598;2022-11-15T16:40:30;17.00;99.90
56256;DHT22;57229;51.432;-2.598;2022-11-15T16:42:57;17.00;99.90
56256;DHT22;57229;51.432;-2.598;2022-11-15T16:45:24;17.00;99.90
56256;DHT22;57229;51.432;-2.598;2022-11-15T16:47:50;17.00;99.90
56256;DHT22;57229;51.432;-2.598;2022-11-15T16:50:23;17.00;99.90
56256;DHT22;57229;51.432;-2.598;2022-11-15T16:52:59;17.00;99.90
56256;DHT22;57229;51.432;-2.598;2022-11-15T16:55:27;17.00;99.90
56256;DHT22;57229;51.432;-2.598;2022-11-15T16:57:54;17.00;99.90
56256;DHT22;57229;51.432;-2.598;2022-11-15T17:00:20;17.00;99.90
56256;DHT22;57229;51.432;-2.598;2022-11-15T17:02:48;17.00;99.90
56256;DHT22;57229;51.432;-2.598;2022-11-15T17:05:17;17.00;99.90
56256;DHT22;57229;51.432;-2.598;2022-11-15T17:10:44;16.90;99.90
56256;DHT22;57229;51.432;-2.598;2022-11-15T17:13:14;16.90;99.90
56256;DHT22;57229;51.432;-2.598;2022-11-15T17:15:42;16.90;99.90
56256;DHT22;57229;51.432;-2.598;2022-11-15T17:18:24;16.80;99.90
56256;DHT22;57229;51.432;-2.598;2022-11-15T17:20:57;16.80;99.90
56256;DHT22;57229;51.432;-2.598;2022-11-15T17:23:50;16.80;99.90
56256;DHT22;57229;51.432;-2.598;2022-11-15T17:26:23;16.80;99.90
56256;DHT22;57229;51.432;-2.598;2022-11-15T17:28:54;16.80;99.90
56256;DHT22;57229;51.432;-2.598;2022-11-15T17:31:22;16.70;99.90
56256;DHT22;57229;51.432;-2.598;2022-11-15T17:33:52;16.70;99.90
56256;DHT22;57229;51.432;-2.598;2022-11-15T17:39:45;16.70;99.90
56256;DHT22;57229;51.432;-2.598;2022-11-15T17:42:31;16.60;99.90
56256;DHT22;57229;51.432;-2.598;2022-11-15T17:44:58;16.60;99.90
56256;DHT22;57229;51.432;-2.598;2022-11-15T17:47:24;16.60;99.90
56256;DHT22;57229;51.432;-2.598;2022-11-15T17:49:50;16.60;99.90
56256;DHT22;57229;51.432;-2.598;2022-11-15T17:52:16;16.60;99.90
56256;DHT22;57229;51.432;-2.598;2022-11-15T17:54:43;16.50;99.90
56256;DHT22;57229;51.432;-2.598;2022-11-15T17:57:12;16.50;99.90
56256;DHT22;57229;51.432;-2.598;2022-11-15T18:00:24;16.50;99.90
56256;DHT22;57229;51.432;-2.598;2022-11-15T18:02:33;16.50;99.90
56256;DHT22;57229;51.432;-2.598;2022-11-15T18:08:18;16.50;99.90
56256;DHT22;57229;51.432;-2.598;2022-11-15T18:13:36;16.40;99.90
56256;DHT22;57229;51.432;-2.598;2022-11-15T18:16:17;16.40;99.90